Time;durP1;ratioP1;P1;durP2;ratioP2;P2;SDS_P1;SDS_P2;PMS_P1;PMS_P2;Temp;Humidity;BMP_temperature;BMP_pressure;BME280_temperature;BME280_humidity;BME280_pressure;Samples;Min_cycle;Max_cycle;Signal;HPM_P1;HPM_P2
2024/03/08 00:02:26;;;;;;;20.38;10.10;;;8.00;99.90;;;;;;10022931;28;20042;-76
2024/03/08 00:07:16;;;;;;;18.95;9.57;;;8.10;99.90;;;;;;10023842;28;20514;-75
2024/03/08 00:12:09;;;;;;;19.67;9.88;;;8.10;99.90;;;;;;10030140;28;20523;-76
2024/03/08 00:17:00;;;;;;;21.80;10.40;;;8.10;99.90;;;;;;10023789;28;20037;-74
2024/03/08 00:21:51;;;;;;;26.58;12.15;;;8.10;99.90;;;;;;10023975;28;20046;-75
2024/03/08 00:26:43;;;;;;;19.98;9.77;;;8.00;99.90;;;;;;10021644;28;20073;-76
2024/03/08 00:31:33;;;;;;;21.02;10.73;;;8.00;99.90;;;;;;10023722;28;20052;-78
2024/03/08 00:36:24;;;;;;;19.02;10.02;;;7.90;99.90;;;;;;10022253;28;20021;-77
2024/03/08 00:41:15;;;;;;;19.55;11.07;;;7.90;99.90;;;;;;10022444;28;20025;-76
2024/03/08 00:46:06;;;;;;;22.23;11.63;;;7.90;99.90;;;;;;10022944;28;20012;-76
2024/03/08 00:50:57;;;;;;;21.23;10.90;;;7.90;99.90;;;;;;10025048;28;20112;-77
2024/03/08 00:55:48;;;;;;;18.60;10.00;;;7.80;99.90;;;;;;10022525;28;20362;-77
2024/03/08 01:00:38;;;;;;;20.35;10.25;;;7.70;99.90;;;;;;10022494;28;20629;-78
2024/03/08 01:05:29;;;;;;;22.90;11.10;;;7.70;99.90;;;;;;10018575;28;20026;-77
2024/03/08 01:10:20;;;;;;;20.67;10.23;;;7.60;99.90;;;;;;10019819;28;20518;-76
2024/03/08 01:15:10;;;;;;;22.92;10.93;;;7.70;99.90;;;;;;10020365;28;20052;-78
2024/03/08 01:20:01;;;;;;;19.38;9.98;;;7.70;99.90;;;;;;10021048;28;20526;-77
2024/03/08 01:24:52;;;;;;;21.50;10.20;;;7.70;99.90;;;;;;10015540;28;20212;-75
2024/03/08 01:29:43;;;;;;;21.70;11.85;;;7.70;99.90;;;;;;10009052;28;20060;-76
2024/03/08 01:34:33;;;;;;;17.45;9.77;;;7.70;99.90;;;;;;10035444;28;20026;-77
2024/03/08 01:39:24;;;;;;;21.80;10.00;;;7.60;99.90;;;;;;10024135;28;20081;-78
2024/03/08 01:44:17;;;;;;;18.90;9.43;;;7.50;99.90;;;;;;10021351;28;20026;-78
2024/03/08 01:49:08;;;;;;;20.45;11.25;;;7.50;99.90;;;;;;10022695;28;20064;-76
2024/03/08 01:54:02;;;;;;;17.52;10.15;;;7.50;99.90;;;;;;10020759;28;20635;-77
2024/03/08 01:58:54;;;;;;;17.20;10.07;;;7.50;99.90;;;;;;10038929;28;20036;-77
2024/03/08 02:03:44;;;;;;;20.60;10.65;;;7.50;99.90;;;;;;10029675;28;20032;-77
2024/03/08 02:08:35;;;;;;;17.25;9.82;;;7.40;99.90;;;;;;10022797;28;20125;-77
2024/03/08 02:13:26;;;;;;;21.05;9.70;;;7.40;99.90;;;;;;10020341;28;20063;-78
2024/03/08 02:18:17;;;;;;;20.70;9.77;;;7.30;99.90;;;;;;10022622;28;20068;-74
2024/03/08 02:23:08;;;;;;;15.88;8.88;;;7.40;99.90;;;;;;10032832;28;20037;-73
2024/03/08 02:27:58;;;;;;;19.25;9.50;;;7.30;99.90;;;;;;10029138;28;20057;-72
2024/03/08 02:32:49;;;;;;;17.80;10.25;;;7.20;99.90;;;;;;10023630;28;20038;-73
2024/03/08 02:37:39;;;;;;;17.05;9.02;;;7.20;99.90;;;;;;10018733;28;20491;-75
2024/03/08 02:42:30;;;;;;;18.67;9.35;;;7.20;99.90;;;;;;10025765;28;20048;-77
2024/03/08 02:47:21;;;;;;;18.70;9.45;;;7.20;99.90;;;;;;10018828;28;20084;-74
2024/03/08 02:52:11;;;;;;;19.30;8.60;;;7.20;99.90;;;;;;10017155;28;20069;-77
2024/03/08 02:57:03;;;;;;;20.02;9.77;;;7.10;99.90;;;;;;10017724;28;20342;-72
2024/03/08 03:01:54;;;;;;;20.25;9.45;;;7.20;99.90;;;;;;10018690;28;20034;-72
2024/03/08 03:06:45;;;;;;;19.33;9.52;;;7.10;99.90;;;;;;10018933;28;20022;-72
2024/03/08 03:11:37;;;;;;;17.63;8.13;;;7.00;99.90;;;;;;10018399;28;20034;-73
2024/03/08 03:16:28;;;;;;;17.23;9.93;;;7.00;99.90;;;;;;10017598;28;20020;-72
2024/03/08 03:21:19;;;;;;;12.45;8.20;;;7.00;99.90;;;;;;10017673;28;20033;-73
2024/03/08 03:26:12;;;;;;;18.55;9.27;;;7.00;99.90;;;;;;10019781;28;20505;-76
2024/03/08 03:31:03;;;;;;;17.02;9.20;;;7.00;99.90;;;;;;10017185;28;20523;-72
2024/03/08 03:35:54;;;;;;;16.92;9.20;;;7.00;99.90;;;;;;10016157;28;20105;-74
2024/03/08 03:40:46;;;;;;;19.52;9.30;;;6.90;99.90;;;;;;10024726;28;20017;-72
2024/03/08 03:45:36;;;;;;;19.23;9.32;;;6.90;99.90;;;;;;10016476;28;20036;-72
2024/03/08 03:50:27;;;;;;;15.80;8.50;;;7.00;99.90;;;;;;10016827;28;20037;-72
2024/03/08 03:55:19;;;;;;;17.27;9.10;;;7.00;99.90;;;;;;10023868;28;20030;-72
2024/03/08 04:00:10;;;;;;;16.63;8.52;;;6.90;99.90;;;;;;10019491;28;20116;-72
2024/03/08 04:05:02;;;;;;;17.15;9.27;;;6.80;99.90;;;;;;10015474;28;20097;-73
2024/03/08 04:09:52;;;;;;;19.05;8.68;;;6.80;99.90;;;;;;10015404;28;20430;-74
2024/03/08 04:14:43;;;;;;;21.92;8.75;;;6.70;99.90;;;;;;10016259;28;20025;-73
2024/03/08 04:19:34;;;;;;;21.75;9.57;;;6.70;99.90;;;;;;10016261;28;20036;-72
2024/03/08 04:24:25;;;;;;;16.63;8.68;;;6.60;99.90;;;;;;10016047;28;20069;-74
2024/03/08 04:29:17;;;;;;;18.40;8.63;;;6.60;99.90;;;;;;10015661;28;20143;-72
2024/03/08 04:34:08;;;;;;;21.08;9.52;;;6.60;99.90;;;;;;10017154;28;20080;-73
2024/03/08 04:38:59;;;;;;;19.35;9.98;;;6.60;99.90;;;;;;10014137;28;20073;-73
2024/03/08 04:43:50;;;;;;;18.75;9.40;;;6.40;99.90;;;;;;10015875;28;20697;-72
2024/03/08 04:48:42;;;;;;;15.82;8.85;;;6.40;99.90;;;;;;10030899;28;20022;-72
2024/03/08 04:53:34;;;;;;;16.70;7.90;;;6.40;99.90;;;;;;10030092;28;20037;-72
2024/03/08 04:58:24;;;;;;;19.45;11.10;;;6.30;99.90;;;;;;10021993;28;20026;-72
2024/03/08 05:03:15;;;;;;;22.95;9.55;;;6.40;99.90;;;;;;10023929;28;20080;-71
2024/03/08 05:08:06;;;;;;;19.33;9.00;;;6.30;99.90;;;;;;10022570;28;20060;-72
2024/03/08 05:12:57;;;;;;;21.05;9.82;;;6.30;99.90;;;;;;10022822;28;20037;-72
2024/03/08 05:17:47;;;;;;;19.52;9.88;;;6.30;99.90;;;;;;10021325;28;20410;-72
2024/03/08 05:22:38;;;;;;;18.30;8.73;;;6.30;99.90;;;;;;10021896;28;20044;-72
2024/03/08 05:27:29;;;;;;;17.38;8.23;;;6.20;99.90;;;;;;10016974;28;20117;-72
2024/03/08 05:32:20;;;;;;;15.77;9.43;;;6.10;99.90;;;;;;10026340;28;20034;-72
2024/03/08 05:37:11;;;;;;;18.30;8.35;;;6.10;99.90;;;;;;10020963;28;20103;-72
2024/03/08 05:42:01;;;;;;;19.35;8.98;;;6.00;99.90;;;;;;10019791;28;20026;-71
2024/03/08 05:46:52;;;;;;;14.60;7.95;;;5.90;99.90;;;;;;10020389;28;20105;-72
2024/03/08 05:51:43;;;;;;;20.65;10.27;;;6.00;99.90;;;;;;10022785;28;20136;-72
2024/03/08 05:56:33;;;;;;;18.15;9.13;;;6.00;99.90;;;;;;10019449;28;20526;-72
2024/03/08 06:01:27;;;;;;;20.35;9.02;;;6.00;99.90;;;;;;10021714;28;20091;-71
2024/03/08 06:06:18;;;;;;;17.35;9.68;;;6.00;99.90;;;;;;10020154;28;20451;-72
2024/03/08 06:11:09;;;;;;;18.67;8.50;;;6.00;99.90;;;;;;10019671;28;20395;-72
2024/03/08 06:16:04;;;;;;;19.33;9.05;;;6.00;99.90;;;;;;10016978;28;20133;-72
2024/03/08 06:20:55;;;;;;;19.77;9.63;;;5.90;99.90;;;;;;10019764;28;20064;-72
2024/03/08 06:25:46;;;;;;;17.95;8.48;;;5.90;99.90;;;;;;10018737;28;20046;-72
2024/03/08 06:30:36;;;;;;;16.80;7.95;;;5.90;99.90;;;;;;10013946;28;20054;-72
2024/03/08 06:35:27;;;;;;;17.52;8.27;;;5.70;99.90;;;;;;10012656;28;20033;-72
2024/03/08 06:40:18;;;;;;;15.35;9.07;;;5.70;99.90;;;;;;10019638;28;20038;-72
2024/03/08 06:45:10;;;;;;;16.75;8.20;;;5.80;99.90;;;;;;10022728;28;20018;-72
2024/03/08 06:50:01;;;;;;;17.92;9.10;;;5.80;99.90;;;;;;10017437;28;20042;-72
2024/03/08 06:54:52;;;;;;;15.38;7.40;;;5.80;99.90;;;;;;10021609;28;20406;-73
2024/03/08 06:59:43;;;;;;;16.08;8.40;;;5.80;99.90;;;;;;10018304;28;20036;-72
2024/03/08 07:04:37;;;;;;;15.95;8.60;;;5.80;99.90;;;;;;10018121;28;20026;-74
2024/03/08 07:09:28;;;;;;;16.67;8.30;;;5.80;99.90;;;;;;10019243;28;20034;-73
2024/03/08 07:14:19;;;;;;;17.17;9.15;;;5.90;99.90;;;;;;10017046;28;20052;-78
2024/03/08 07:19:09;;;;;;;21.17;8.95;;;5.90;99.90;;;;;;10017531;28;20030;-75
2024/03/08 07:28:51;;;;;;;19.90;7.55;;;5.80;99.90;;;;;;10017866;28;20551;-78
2024/03/08 07:33:41;;;;;;;16.67;8.70;;;5.80;99.90;;;;;;10016879;28;20646;-78
2024/03/08 07:38:32;;;;;;;15.18;8.35;;;5.80;99.90;;;;;;10012011;28;20026;-82
2024/03/08 07:43:23;;;;;;;17.20;8.82;;;5.90;99.90;;;;;;10015303;28;20034;-75
2024/03/08 07:48:16;;;;;;;18.05;8.18;;;5.90;99.90;;;;;;10003766;28;20033;-76
2024/03/08 07:53:07;;;;;;;16.70;8.65;;;6.00;99.90;;;;;;10000974;28;20044;-76
2024/03/08 07:57:58;;;;;;;14.98;7.50;;;6.10;99.90;;;;;;10013618;28;20037;-73
2024/03/08 08:02:49;;;;;;;16.77;7.75;;;6.10;99.90;;;;;;10015435;28;20026;-74
2024/03/08 08:07:43;;;;;;;14.95;6.78;;;6.00;99.90;;;;;;10016642;28;20507;-73
2024/03/08 08:12:37;;;;;;;14.88;8.32;;;6.10;99.90;;;;;;10015277;28;20045;-73
2024/03/08 08:17:28;;;;;;;13.27;7.28;;;6.10;99.90;;;;;;10015192;28;20293;-72
2024/03/08 08:22:18;;;;;;;12.50;7.40;;;6.20;99.90;;;;;;10023218;28;20036;-73
2024/03/08 08:27:11;;;;;;;16.80;8.13;;;6.20;99.90;;;;;;10022565;28;20050;-73
2024/03/08 08:32:02;;;;;;;14.52;7.22;;;6.20;99.90;;;;;;10035695;28;20333;-74
2024/03/08 08:36:54;;;;;;;14.70;8.48;;;6.30;99.90;;;;;;10046633;28;20029;-73
2024/03/08 08:41:45;;;;;;;14.80;7.60;;;6.40;99.90;;;;;;10035725;28;20562;-74
2024/03/08 08:46:38;;;;;;;15.55;7.63;;;6.30;99.90;;;;;;10021921;28;20034;-73
2024/03/08 08:51:29;;;;;;;14.68;7.45;;;6.40;99.90;;;;;;10026448;28;20038;-75
2024/03/08 08:56:19;;;;;;;18.55;7.88;;;6.50;99.90;;;;;;10022053;28;20022;-73
2024/03/08 09:01:11;;;;;;;14.75;7.47;;;6.60;99.90;;;;;;10020840;28;20049;-74
2024/03/08 09:06:04;;;;;;;15.40;7.97;;;6.60;99.90;;;;;;10021316;28;20526;-74
2024/03/08 09:10:56;;;;;;;14.73;7.47;;;6.70;99.90;;;;;;10016561;28;20046;-74
2024/03/08 09:15:47;;;;;;;15.68;7.95;;;6.70;99.90;;;;;;10019902;28;20026;-73
2024/03/08 09:20:37;;;;;;;14.02;7.53;;;6.80;99.90;;;;;;10019183;28;20041;-74
2024/03/08 09:25:28;;;;;;;14.93;7.43;;;6.80;99.90;;;;;;10019558;28;20029;-73
2024/03/08 09:30:19;;;;;;;16.10;7.05;;;6.90;99.90;;;;;;10028180;28;20084;-73
2024/03/08 09:35:15;;;;;;;13.55;6.55;;;7.00;99.90;;;;;;10009811;28;20467;-75
2024/03/08 09:40:09;;;;;;;14.60;7.90;;;6.90;99.90;;;;;;10016993;28;20054;-76
2024/03/08 09:44:59;;;;;;;14.85;6.50;;;6.90;99.90;;;;;;10025465;28;20507;-76
2024/03/08 09:49:50;;;;;;;12.80;7.95;;;7.00;99.90;;;;;;10020738;28;20075;-75
2024/03/08 09:54:44;;;;;;;13.50;6.82;;;7.00;99.90;;;;;;10022600;28;20049;-75
2024/03/08 10:04:30;;;;;;;12.10;6.13;;;7.10;99.90;;;;;;10020078;28;20252;-75
2024/03/08 10:09:24;;;;;;;15.50;7.22;;;7.20;99.90;;;;;;10028416;28;20498;-76
2024/03/08 10:14:16;;;;;;;19.02;7.20;;;7.20;99.90;;;;;;10024982;28;20102;-75
2024/03/08 10:19:07;;;;;;;16.85;7.20;;;7.30;99.90;;;;;;10018343;28;20022;-75
2024/03/08 10:23:59;;;;;;;14.38;7.35;;;7.30;99.90;;;;;;10020267;28;20037;-77
2024/03/08 10:28:50;;;;;;;14.40;6.93;;;7.40;99.90;;;;;;10018574;28;20045;-75
2024/03/08 10:33:41;;;;;;;15.27;7.90;;;7.40;99.90;;;;;;10024791;28;20030;-75
2024/03/08 10:38:33;;;;;;;11.52;6.72;;;7.50;99.90;;;;;;10013324;28;20022;-75
2024/03/08 10:43:25;;;;;;;14.02;6.78;;;7.50;99.90;;;;;;10017857;28;20050;-76
2024/03/08 10:48:32;;;;;;;15.38;7.93;;;7.60;99.90;;;;;;10017488;28;20045;-74
2024/03/08 10:53:26;;;;;;;15.70;7.88;;;7.60;99.90;;;;;;10017924;28;20044;-77
2024/03/08 10:58:17;;;;;;;15.80;7.45;;;7.60;99.90;;;;;;10018105;28;20136;-75
2024/03/08 11:03:40;;;;;;;11.77;6.93;;;7.70;99.90;;;;;;10017909;28;20049;-76
2024/03/08 11:08:31;;;;;;;11.93;7.18;;;7.70;99.90;;;;;;10020642;28;20024;-76
2024/03/08 11:13:40;;;;;;;15.35;6.55;;;7.70;99.90;;;;;;10017212;28;20376;-78
2024/03/08 11:18:33;;;;;;;15.38;6.32;;;7.70;99.90;;;;;;10016802;28;20033;-75
2024/03/08 11:23:26;;;;;;;16.50;7.85;;;7.70;99.90;;;;;;10017496;28;20443;-76
2024/03/08 11:28:23;;;;;;;15.10;7.30;;;7.80;99.90;;;;;;10020000;28;20046;-75
2024/03/08 11:33:15;;;;;;;17.08;7.25;;;7.90;99.90;;;;;;10016743;28;20491;-76
2024/03/08 11:38:09;;;;;;;17.33;7.30;;;7.90;99.90;;;;;;10018401;28;20026;-75
2024/03/08 11:43:03;;;;;;;15.73;7.72;;;8.00;99.90;;;;;;10016635;28;20503;-75
2024/03/08 11:47:54;;;;;;;13.95;7.53;;;8.10;99.90;;;;;;10015236;28;20021;-76
2024/03/08 11:52:45;;;;;;;13.88;8.10;;;8.10;99.90;;;;;;10023352;28;20505;-73
2024/03/08 11:57:37;;;;;;;17.08;7.30;;;8.20;99.90;;;;;;10029784;28;20181;-69
2024/03/08 12:02:30;;;;;;;16.58;7.88;;;8.30;99.90;;;;;;10026668;28;20101;-70
2024/03/08 12:07:20;;;;;;;15.23;7.35;;;8.30;99.90;;;;;;10034718;28;20018;-73
2024/03/08 12:12:11;;;;;;;13.25;6.28;;;8.50;99.90;;;;;;10013168;28;20499;-73
2024/03/08 12:17:02;;;;;;;11.05;6.88;;;8.50;99.90;;;;;;10008775;28;20076;-73
2024/03/08 12:21:55;;;;;;;15.23;7.03;;;8.60;99.90;;;;;;10006100;28;20621;-72
2024/03/08 12:26:51;;;;;;;14.15;7.18;;;8.70;99.90;;;;;;10014000;28;20054;-75
2024/03/08 12:31:42;;;;;;;10.63;5.90;;;8.70;99.90;;;;;;10012235;28;20068;-73
2024/03/08 12:36:33;;;;;;;15.07;7.00;;;8.90;99.90;;;;;;10012036;28;20069;-73
2024/03/08 12:41:23;;;;;;;13.35;6.13;;;9.10;99.90;;;;;;10002737;28;20084;-71
2024/03/08 12:46:15;;;;;;;12.57;6.50;;;9.20;99.90;;;;;;9999032;28;20029;-72
2024/03/08 12:51:10;;;;;;;12.40;6.65;;;9.30;99.90;;;;;;10010662;28;20507;-73
2024/03/08 12:56:00;;;;;;;13.88;7.03;;;9.40;99.90;;;;;;10012490;28;20399;-72
2024/03/08 13:00:52;;;;;;;12.85;6.25;;;9.50;99.90;;;;;;10012325;28;20026;-74
2024/03/08 13:05:42;;;;;;;12.90;7.13;;;9.60;99.90;;;;;;10008920;28;20037;-74
2024/03/08 13:10:33;;;;;;;12.73;6.50;;;9.70;99.90;;;;;;10018034;28;20041;-72
2024/03/08 13:15:24;;;;;;;12.10;6.28;;;9.90;99.90;;;;;;10011732;28;20034;-74
2024/03/08 13:20:19;;;;;;;11.73;5.97;;;10.00;99.90;;;;;;10009421;28;20075;-72
2024/03/08 13:25:13;;;;;;;12.50;6.17;;;10.10;99.90;;;;;;10011218;28;20402;-74
2024/03/08 13:30:04;;;;;;;10.98;6.35;;;10.30;99.90;;;;;;10015576;28;20053;-72
2024/03/08 13:34:55;;;;;;;11.43;6.03;;;10.50;99.90;;;;;;10012571;28;20036;-71
2024/03/08 13:39:46;;;;;;;14.63;7.38;;;10.60;99.90;;;;;;10003753;28;20026;-74
2024/03/08 13:44:36;;;;;;;12.95;6.60;;;10.70;99.90;;;;;;10010398;28;20044;-75
2024/03/08 13:49:27;;;;;;;13.10;6.97;;;11.00;99.90;;;;;;10019011;28;20046;-73
2024/03/08 13:54:18;;;;;;;11.23;6.38;;;11.10;99.90;;;;;;10016129;28;20023;-73
2024/03/08 13:59:09;;;;;;;12.77;5.78;;;11.30;99.90;;;;;;10016836;28;20025;-71
2024/03/08 14:04:03;;;;;;;10.07;6.10;;;11.40;99.90;;;;;;10016151;28;20022;-73
2024/03/08 14:08:56;;;;;;;11.10;6.50;;;11.60;99.90;;;;;;10017080;28;20134;-72
2024/03/08 14:13:47;;;;;;;10.15;5.38;;;11.80;99.90;;;;;;10009995;28;20530;-71
2024/03/08 14:18:38;;;;;;;13.52;6.45;;;12.00;99.90;;;;;;10019936;28;20037;-72
2024/03/08 14:23:28;;;;;;;11.32;6.68;;;12.20;99.90;;;;;;10017793;28;20030;-73
2024/03/08 14:28:19;;;;;;;10.80;6.60;;;12.40;99.90;;;;;;10017632;28;20045;-72
2024/03/08 14:33:10;;;;;;;10.63;5.90;;;12.60;99.90;;;;;;10025840;28;20500;-71
2024/03/08 14:38:00;;;;;;;12.32;7.30;;;12.70;99.90;;;;;;10012965;28;20084;-72
2024/03/08 14:42:52;;;;;;;9.23;6.03;;;13.00;99.90;;;;;;10017345;28;20050;-71
2024/03/08 14:47:44;;;;;;;10.13;6.13;;;12.90;99.90;;;;;;10017831;28;20114;-71
2024/03/08 14:52:35;;;;;;;9.68;6.28;;;13.10;99.90;;;;;;10016306;28;20052;-72
2024/03/08 14:57:26;;;;;;;10.98;6.40;;;13.30;99.90;;;;;;10019175;28;20121;-73
2024/03/08 15:02:18;;;;;;;10.10;5.57;;;13.40;99.90;;;;;;10014712;28;20134;-72
2024/03/08 15:07:09;;;;;;;8.90;5.40;;;13.60;99.90;;;;;;10016309;28;20030;-72
2024/03/08 15:12:00;;;;;;;9.52;5.88;;;13.80;99.90;;;;;;10021520;28;20636;-73
2024/03/08 15:16:51;;;;;;;8.70;5.60;;;13.90;99.90;;;;;;10015690;28;20034;-71
2024/03/08 15:21:45;;;;;;;12.18;5.97;;;13.80;99.90;;;;;;10016211;28;20312;-71
2024/03/08 15:26:36;;;;;;;10.17;5.77;;;13.60;99.90;;;;;;10012701;28;20041;-71
2024/03/08 15:31:27;;;;;;;8.88;6.20;;;13.40;99.90;;;;;;10013897;28;20396;-78
2024/03/08 15:36:21;;;;;;;10.95;5.65;;;13.20;99.90;;;;;;10012137;28;20026;-71
2024/03/08 15:41:12;;;;;;;9.00;6.05;;;13.10;99.90;;;;;;10008070;28;20430;-75
2024/03/08 15:46:06;;;;;;;10.07;5.75;;;13.20;99.90;;;;;;10017174;28;20450;-75
2024/03/08 15:50:57;;;;;;;9.95;6.63;;;12.90;99.90;;;;;;10015795;28;20045;-76
2024/03/08 15:55:48;;;;;;;10.02;5.85;;;12.70;99.90;;;;;;10014096;28;20403;-75
2024/03/08 16:00:45;;;;;;;9.10;5.15;;;12.40;99.90;;;;;;10014238;28;20045;-74
2024/03/08 16:05:36;;;;;;;10.00;5.55;;;12.00;99.90;;;;;;10006854;28;20026;-70
2024/03/08 16:10:30;;;;;;;9.25;5.68;;;11.90;99.90;;;;;;10017479;28;20510;-77
2024/03/08 16:15:20;;;;;;;9.43;5.20;;;11.90;99.90;;;;;;10010409;28;20041;-76
2024/03/08 16:20:14;;;;;;;11.93;5.10;;;11.80;99.90;;;;;;10018746;28;20033;-73
2024/03/08 16:25:09;;;;;;;10.32;4.85;;;11.80;99.90;;;;;;10013926;28;20045;-74
2024/03/08 16:30:00;;;;;;;7.93;4.72;;;11.80;99.90;;;;;;10014711;28;20117;-74
2024/03/08 16:34:51;;;;;;;9.15;4.85;;;11.70;99.90;;;;;;10014133;28;20117;-75
2024/03/08 16:39:42;;;;;;;9.23;5.07;;;11.70;99.90;;;;;;10014070;28;20030;-76
2024/03/08 16:44:32;;;;;;;7.80;5.32;;;11.70;99.90;;;;;;10020049;28;20491;-75
2024/03/08 16:49:23;;;;;;;7.68;5.30;;;11.70;99.90;;;;;;10022249;28;20531;-73
2024/03/08 16:54:15;;;;;;;11.02;5.90;;;11.70;99.90;;;;;;10018137;28;20026;-74
2024/03/08 16:59:08;;;;;;;12.65;5.93;;;11.70;99.90;;;;;;10021782;28;20018;-74
2024/03/08 17:03:59;;;;;;;8.07;5.15;;;11.70;99.90;;;;;;10032003;28;20029;-74
2024/03/08 17:08:49;;;;;;;10.85;6.40;;;11.60;99.90;;;;;;10022119;28;20390;-74
2024/03/08 17:13:40;;;;;;;18.10;6.82;;;11.60;99.90;;;;;;10019414;28;20042;-75
2024/03/08 17:18:31;;;;;;;11.48;6.15;;;11.50;99.90;;;;;;10023214;28;20075;-74
2024/03/08 17:23:22;;;;;;;13.57;7.32;;;11.40;99.90;;;;;;10020886;28;20060;-75
2024/03/08 17:28:13;;;;;;;11.30;7.15;;;11.30;99.90;;;;;;10020323;28;20054;-74
2024/03/08 17:33:14;;;;;;;11.25;5.97;;;11.40;99.90;;;;;;10015924;28;20140;-75
2024/03/08 17:38:10;;;;;;;14.43;6.80;;;11.40;99.90;;;;;;10016184;28;20037;-75
2024/03/08 17:43:04;;;;;;;11.90;6.43;;;11.30;99.90;;;;;;10019695;28;20038;-74
2024/03/08 17:47:55;;;;;;;11.43;6.53;;;11.30;99.90;;;;;;10017830;28;20072;-75
2024/03/08 17:52:47;;;;;;;11.38;6.15;;;11.20;99.90;;;;;;10017808;28;20042;-74
2024/03/08 17:57:41;;;;;;;12.88;5.80;;;11.20;99.90;;;;;;10019491;28;20022;-74
2024/03/08 18:02:32;;;;;;;14.20;5.97;;;11.20;99.90;;;;;;10023226;28;20037;-73
2024/03/08 18:07:22;;;;;;;13.85;7.05;;;11.20;99.90;;;;;;10019812;28;20030;-74
2024/03/08 18:12:13;;;;;;;11.23;5.95;;;11.20;99.90;;;;;;10018690;28;20038;-74
2024/03/08 18:17:06;;;;;;;13.10;7.45;;;11.10;99.90;;;;;;10016390;28;20108;-74
2024/03/08 18:21:56;;;;;;;12.50;6.70;;;11.10;99.90;;;;;;10018179;28;20033;-74
2024/03/08 18:26:48;;;;;;;13.80;6.40;;;11.10;99.90;;;;;;10017820;28;20046;-73
2024/03/08 18:31:39;;;;;;;13.77;6.55;;;11.10;99.90;;;;;;10017642;28;20065;-74
2024/03/08 18:36:30;;;;;;;11.77;6.93;;;11.10;99.90;;;;;;10016292;28;20083;-74
2024/03/08 18:41:21;;;;;;;12.15;7.15;;;11.00;99.90;;;;;;10016412;28;20499;-74
2024/03/08 18:46:12;;;;;;;10.90;6.65;;;11.10;99.90;;;;;;10017268;28;20079;-74
2024/03/08 18:51:02;;;;;;;15.07;6.97;;;11.10;99.90;;;;;;10016375;28;20050;-73
2024/03/08 18:55:53;;;;;;;12.52;7.13;;;11.10;99.90;;;;;;10014138;28;20026;-72
2024/03/08 19:00:49;;;;;;;13.48;6.70;;;11.10;99.90;;;;;;10016461;28;20415;-75
2024/03/08 19:05:44;;;;;;;;;;;11.00;99.90;;;;;;10016814;28;20032;-75
2024/03/08 19:10:37;;;;;;;15.90;6.30;;;11.10;99.90;;;;;;10016812;28;19972;-73
2024/03/08 19:15:31;;;;;;;14.10;6.78;;;11.00;99.90;;;;;;10014429;28;20026;-74
2024/03/08 19:20:24;;;;;;;14.43;6.95;;;11.00;99.90;;;;;;10014981;28;20088;-74
2024/03/08 19:25:18;;;;;;;18.10;7.40;;;11.00;99.90;;;;;;10015756;28;20029;-74
2024/03/08 19:30:13;;;;;;;13.32;7.90;;;11.00;99.90;;;;;;10014452;28;20511;-74
2024/03/08 19:35:18;;;;;;;17.95;7.13;;;11.00;99.90;;;;;;10028633;28;20034;-72
2024/03/08 19:40:19;;;;;;;10.25;6.40;;;10.90;99.90;;;;;;10013325;28;20532;-73
2024/03/08 19:45:09;;;;;;;13.40;6.80;;;10.90;99.90;;;;;;10015423;28;20109;-74
2024/03/08 19:50:00;;;;;;;16.92;8.45;;;10.90;99.90;;;;;;10015579;28;20038;-74
2024/03/08 19:54:51;;;;;;;14.32;8.07;;;10.90;99.90;;;;;;10017609;28;20041;-75
2024/03/08 19:59:44;;;;;;;17.05;7.88;;;10.90;99.90;;;;;;10015893;28;20033;-74
2024/03/08 20:04:35;;;;;;;15.35;8.23;;;10.80;99.90;;;;;;10010414;28;20045;-74
2024/03/08 20:09:26;;;;;;;18.33;7.97;;;10.80;99.90;;;;;;10013942;28;20034;-74
2024/03/08 20:14:17;;;;;;;16.77;7.57;;;10.80;99.90;;;;;;10015044;28;20029;-74
2024/03/08 20:19:09;;;;;;;11.85;7.30;;;10.80;99.90;;;;;;10024945;28;20348;-74
2024/03/08 20:24:00;;;;;;;17.25;8.57;;;10.80;99.90;;;;;;10021065;28;20026;-75
2024/03/08 20:28:51;;;;;;;16.65;8.38;;;10.80;99.90;;;;;;10022759;28;20080;-74
2024/03/08 20:33:43;;;;;;;20.40;8.93;;;10.80;99.90;;;;;;10022142;28;20046;-74
2024/03/08 20:38:36;;;;;;;13.57;8.05;;;10.80;99.90;;;;;;10022414;28;20069;-74
2024/03/08 20:43:27;;;;;;;15.13;7.28;;;10.80;99.90;;;;;;10020757;28;20025;-74
2024/03/08 20:48:19;;;;;;;14.13;6.65;;;10.80;99.90;;;;;;10027264;28;20043;-74
2024/03/08 20:53:14;;;;;;;13.57;7.50;;;10.70;99.90;;;;;;10017954;28;20030;-74
2024/03/08 20:58:06;;;;;;;13.18;7.50;;;10.70;99.90;;;;;;10021505;28;20128;-74
2024/03/08 21:02:57;;;;;;;14.32;7.43;;;10.70;99.90;;;;;;10020001;28;20065;-75
2024/03/08 21:07:47;;;;;;;14.65;7.80;;;10.70;99.90;;;;;;10021215;28;20033;-74
2024/03/08 21:12:38;;;;;;;11.45;7.35;;;10.70;99.90;;;;;;10016338;28;20057;-74
2024/03/08 21:17:29;;;;;;;14.52;7.63;;;10.70;99.90;;;;;;10019052;28;20048;-74
2024/03/08 21:22:22;;;;;;;14.30;7.80;;;10.70;99.90;;;;;;10020895;28;20037;-74
2024/03/08 21:27:16;;;;;;;14.70;8.00;;;10.70;99.90;;;;;;10021506;28;20054;-75
2024/03/08 21:32:07;;;;;;;13.55;7.20;;;10.60;99.90;;;;;;10019369;28;20096;-75
2024/03/08 21:36:58;;;;;;;14.68;8.57;;;10.60;99.90;;;;;;10028142;28;20046;-76
2024/03/08 21:41:49;;;;;;;14.35;7.30;;;10.60;99.90;;;;;;10012573;28;20038;-76
2024/03/08 21:46:44;;;;;;;18.08;8.13;;;10.60;99.90;;;;;;10021717;28;20022;-74
2024/03/08 21:51:35;;;;;;;15.88;7.65;;;10.60;99.90;;;;;;10015851;28;20046;-75
2024/03/08 21:56:25;;;;;;;20.15;9.02;;;10.60;99.90;;;;;;10019159;28;20030;-76
2024/03/08 22:01:18;;;;;;;17.33;8.18;;;10.60;99.90;;;;;;10018358;28;20509;-76
2024/03/08 22:06:16;;;;;;;19.38;9.00;;;10.50;99.90;;;;;;10019346;28;20056;-76
2024/03/08 22:11:07;;;;;;;15.15;9.30;;;10.50;99.90;;;;;;10014109;28;20034;-76
2024/03/08 22:15:57;;;;;;;18.02;9.00;;;10.50;99.90;;;;;;10018459;28;20027;-75
2024/03/08 22:20:48;;;;;;;17.90;8.77;;;10.50;99.90;;;;;;10018570;28;20522;-75
2024/03/08 22:25:41;;;;;;;18.30;8.95;;;10.60;99.90;;;;;;10016577;28;20058;-76
2024/03/08 22:30:32;;;;;;;15.60;9.05;;;10.60;99.90;;;;;;10018280;28;20060;-76
2024/03/08 22:35:59;;;;;;;17.73;8.75;;;10.60;99.90;;;;;;10017797;28;20514;-76
2024/03/08 22:40:50;;;;;;;16.10;8.52;;;10.60;99.90;;;;;;10014768;28;20029;-76
2024/03/08 22:45:41;;;;;;;14.73;8.05;;;10.60;99.90;;;;;;10017797;28;20601;-76
2024/03/08 22:50:32;;;;;;;16.00;8.80;;;10.50;99.90;;;;;;10017612;28;20520;-76
2024/03/08 22:55:23;;;;;;;16.48;8.95;;;10.50;99.90;;;;;;10016603;28;20179;-75
2024/03/08 23:05:15;;;;;;;17.58;9.23;;;10.40;99.90;;;;;;10011960;28;20076;-77
2024/03/08 23:10:07;;;;;;;17.42;8.55;;;10.40;99.90;;;;;;10010691;28;20033;-75
2024/03/08 23:14:58;;;;;;;17.73;8.90;;;10.30;99.90;;;;;;10017621;28;20022;-76
2024/03/08 23:19:52;;;;;;;21.02;9.93;;;10.30;99.90;;;;;;10017071;28;20039;-75
2024/03/08 23:24:43;;;;;;;18.48;9.02;;;10.30;99.90;;;;;;10022305;28;20124;-76
2024/03/08 23:29:34;;;;;;;18.38;9.55;;;10.30;99.90;;;;;;10016338;28;20217;-76
2024/03/08 23:34:25;;;;;;;16.42;10.63;;;10.30;99.90;;;;;;10016069;28;20109;-74
2024/03/08 23:39:17;;;;;;;20.85;10.52;;;10.20;99.90;;;;;;10017878;28;20298;-75
2024/03/08 23:44:08;;;;;;;19.73;9.75;;;10.20;99.90;;;;;;10022440;28;20034;-77
2024/03/08 23:48:59;;;;;;;20.80;9.52;;;10.20;99.90;;;;;;10019952;28;20049;-76
2024/03/08 23:53:50;;;;;;;20.42;10.68;;;10.20;99.90;;;;;;10008999;28;20129;-75
2024/03/08 23:58:41;;;;;;;21.40;9.38;;;10.10;99.90;;;;;;10016035;28;20113;-76
